sensor_id;sensor_type;location;lat;lon;timestamp;P1;durP1;ratioP1;P2;durP2;ratioP2
23676;SDS011;31493;49.058;12.190;2023-05-10T00:01:25;7.88;;;3.30;;
23676;SDS011;31493;49.058;12.190;2023-05-10T00:03:54;5.07;;;3.88;;
23676;SDS011;31493;49.058;12.190;2023-05-10T00:06:21;7.03;;;3.55;;
23676;SDS011;31493;49.058;12.190;2023-05-10T00:08:48;4.90;;;3.65;;
23676;SDS011;31493;49.058;12.190;2023-05-10T00:11:15;5.35;;;3.80;;
23676;SDS011;31493;49.058;12.190;2023-05-10T00:13:42;5.65;;;3.75;;
23676;SDS011;31493;49.058;12.190;2023-05-10T00:16:09;7.22;;;3.83;;
23676;SDS011;31493;49.058;12.190;2023-05-10T00:18:37;6.25;;;3.95;;
23676;SDS011;31493;49.058;12.190;2023-05-10T00:21:06;7.50;;;3.90;;
23676;SDS011;31493;49.058;12.190;2023-05-10T00:23:33;5.63;;;3.63;;
23676;SDS011;31493;49.058;12.190;2023-05-10T00:26:00;6.25;;;4.00;;
23676;SDS011;31493;49.058;12.190;2023-05-10T00:28:27;9.05;;;3.95;;
23676;SDS011;31493;49.058;12.190;2023-05-10T00:30:54;5.28;;;4.18;;
23676;SDS011;31493;49.058;12.190;2023-05-10T00:33:22;8.88;;;4.22;;
23676;SDS011;31493;49.058;12.190;2023-05-10T00:35:49;5.40;;;4.20;;
23676;SDS011;31493;49.058;12.190;2023-05-10T00:38:17;8.15;;;4.40;;
23676;SDS011;31493;49.058;12.190;2023-05-10T00:40:44;4.53;;;4.00;;
23676;SDS011;31493;49.058;12.190;2023-05-10T00:43:11;5.25;;;3.97;;
23676;SDS011;31493;49.058;12.190;2023-05-10T00:45:38;4.90;;;3.58;;
23676;SDS011;31493;49.058;12.190;2023-05-10T00:48:07;5.68;;;3.63;;
23676;SDS011;31493;49.058;12.190;2023-05-10T00:50:35;5.15;;;4.10;;
23676;SDS011;31493;49.058;12.190;2023-05-10T00:53:02;8.52;;;4.38;;
23676;SDS011;31493;49.058;12.190;2023-05-10T00:55:31;6.30;;;4.40;;
23676;SDS011;31493;49.058;12.190;2023-05-10T00:57:58;7.00;;;3.78;;
23676;SDS011;31493;49.058;12.190;2023-05-10T01:00:25;4.75;;;4.10;;
23676;SDS011;31493;49.058;12.190;2023-05-10T01:02:52;5.70;;;4.18;;
23676;SDS011;31493;49.058;12.190;2023-05-10T01:05:20;6.15;;;4.07;;
23676;SDS011;31493;49.058;12.190;2023-05-10T01:07:47;4.93;;;3.88;;
23676;SDS011;31493;49.058;12.190;2023-05-10T01:10:14;6.72;;;4.15;;
23676;SDS011;31493;49.058;12.190;2023-05-10T01:12:43;8.35;;;4.30;;
23676;SDS011;31493;49.058;12.190;2023-05-10T01:15:12;5.90;;;4.45;;
23676;SDS011;31493;49.058;12.190;2023-05-10T01:17:42;10.05;;;4.30;;
23676;SDS011;31493;49.058;12.190;2023-05-10T01:20:11;5.28;;;4.35;;
23676;SDS011;31493;49.058;12.190;2023-05-10T01:23:03;5.50;;;4.13;;
23676;SDS011;31493;49.058;12.190;2023-05-10T01:28:32;8.05;;;4.20;;
23676;SDS011;31493;49.058;12.190;2023-05-10T01:31:18;6.53;;;3.80;;
23676;SDS011;31493;49.058;12.190;2023-05-10T01:33:58;6.10;;;4.80;;
23676;SDS011;31493;49.058;12.190;2023-05-10T01:36:30;8.38;;;4.55;;
23676;SDS011;31493;49.058;12.190;2023-05-10T01:39:01;8.82;;;4.45;;
23676;SDS011;31493;49.058;12.190;2023-05-10T01:41:36;5.80;;;4.60;;
23676;SDS011;31493;49.058;12.190;2023-05-10T01:44:14;6.05;;;4.40;;
23676;SDS011;31493;49.058;12.190;2023-05-10T01:46:45;14.20;;;4.88;;
23676;SDS011;31493;49.058;12.190;2023-05-10T01:49:20;6.35;;;4.45;;
23676;SDS011;31493;49.058;12.190;2023-05-10T01:51:52;9.07;;;4.40;;
23676;SDS011;31493;49.058;12.190;2023-05-10T01:54:21;8.85;;;4.88;;
23676;SDS011;31493;49.058;12.190;2023-05-10T01:56:52;5.35;;;4.60;;
23676;SDS011;31493;49.058;12.190;2023-05-10T01:59:27;7.43;;;4.70;;
23676;SDS011;31493;49.058;12.190;2023-05-10T02:01:57;7.82;;;4.88;;
23676;SDS011;31493;49.058;12.190;2023-05-10T02:04:27;7.72;;;5.03;;
23676;SDS011;31493;49.058;12.190;2023-05-10T02:06:54;6.45;;;4.70;;
23676;SDS011;31493;49.058;12.190;2023-05-10T02:09:22;5.88;;;5.22;;
23676;SDS011;31493;49.058;12.190;2023-05-10T02:11:52;8.38;;;5.07;;
23676;SDS011;31493;49.058;12.190;2023-05-10T02:14:20;7.63;;;4.65;;
23676;SDS011;31493;49.058;12.190;2023-05-10T02:19:17;6.72;;;4.88;;
23676;SDS011;31493;49.058;12.190;2023-05-10T02:21:46;5.77;;;4.87;;
23676;SDS011;31493;49.058;12.190;2023-05-10T02:24:14;7.45;;;5.63;;
23676;SDS011;31493;49.058;12.190;2023-05-10T02:26:42;8.45;;;5.10;;
23676;SDS011;31493;49.058;12.190;2023-05-10T02:29:11;6.85;;;5.93;;
23676;SDS011;31493;49.058;12.190;2023-05-10T02:31:40;10.57;;;5.28;;
23676;SDS011;31493;49.058;12.190;2023-05-10T02:34:08;9.77;;;5.60;;
23676;SDS011;31493;49.058;12.190;2023-05-10T02:36:37;6.30;;;5.43;;
23676;SDS011;31493;49.058;12.190;2023-05-10T02:39:07;7.00;;;5.30;;
23676;SDS011;31493;49.058;12.190;2023-05-10T02:41:38;6.70;;;5.63;;
23676;SDS011;31493;49.058;12.190;2023-05-10T02:44:07;7.53;;;5.60;;
23676;SDS011;31493;49.058;12.190;2023-05-10T02:46:35;7.70;;;5.78;;
23676;SDS011;31493;49.058;12.190;2023-05-10T02:49:03;7.03;;;5.53;;
23676;SDS011;31493;49.058;12.190;2023-05-10T02:51:31;6.78;;;5.25;;
23676;SDS011;31493;49.058;12.190;2023-05-10T02:54:03;8.20;;;6.07;;
23676;SDS011;31493;49.058;12.190;2023-05-10T02:56:39;8.88;;;5.88;;
23676;SDS011;31493;49.058;12.190;2023-05-10T02:59:09;7.68;;;6.22;;
23676;SDS011;31493;49.058;12.190;2023-05-10T03:01:36;6.70;;;5.68;;
23676;SDS011;31493;49.058;12.190;2023-05-10T03:04:03;9.85;;;5.93;;
23676;SDS011;31493;49.058;12.190;2023-05-10T03:06:30;7.88;;;6.38;;
23676;SDS011;31493;49.058;12.190;2023-05-10T03:08:58;7.70;;;6.60;;
23676;SDS011;31493;49.058;12.190;2023-05-10T03:11:31;6.80;;;5.97;;
23676;SDS011;31493;49.058;12.190;2023-05-10T03:14:16;10.13;;;6.25;;
23676;SDS011;31493;49.058;12.190;2023-05-10T03:16:54;9.68;;;6.50;;
23676;SDS011;31493;49.058;12.190;2023-05-10T03:19:26;10.20;;;6.43;;
23676;SDS011;31493;49.058;12.190;2023-05-10T03:21:58;11.95;;;6.50;;
23676;SDS011;31493;49.058;12.190;2023-05-10T03:24:28;8.75;;;6.30;;
23676;SDS011;31493;49.058;12.190;2023-05-10T03:26:58;7.73;;;6.30;;
23676;SDS011;31493;49.058;12.190;2023-05-10T03:29:28;10.48;;;6.57;;
23676;SDS011;31493;49.058;12.190;2023-05-10T03:34:24;8.25;;;7.00;;
23676;SDS011;31493;49.058;12.190;2023-05-10T03:36:51;8.73;;;6.65;;
23676;SDS011;31493;49.058;12.190;2023-05-10T03:39:18;9.25;;;7.60;;
23676;SDS011;31493;49.058;12.190;2023-05-10T03:41:46;13.82;;;7.85;;
23676;SDS011;31493;49.058;12.190;2023-05-10T03:44:15;9.82;;;7.60;;
23676;SDS011;31493;49.058;12.190;2023-05-10T03:46:42;15.15;;;8.07;;
23676;SDS011;31493;49.058;12.190;2023-05-10T03:49:09;8.95;;;7.72;;
23676;SDS011;31493;49.058;12.190;2023-05-10T03:51:36;12.02;;;8.82;;
23676;SDS011;31493;49.058;12.190;2023-05-10T03:54:03;11.70;;;8.80;;
23676;SDS011;31493;49.058;12.190;2023-05-10T03:56:30;13.82;;;7.78;;
23676;SDS011;31493;49.058;12.190;2023-05-10T03:58:58;9.65;;;7.78;;
23676;SDS011;31493;49.058;12.190;2023-05-10T04:01:26;10.98;;;8.77;;
23676;SDS011;31493;49.058;12.190;2023-05-10T04:03:53;9.20;;;7.95;;
23676;SDS011;31493;49.058;12.190;2023-05-10T04:06:20;13.27;;;9.02;;
23676;SDS011;31493;49.058;12.190;2023-05-10T04:08:47;12.32;;;8.38;;
23676;SDS011;31493;49.058;12.190;2023-05-10T04:11:14;10.63;;;7.88;;
23676;SDS011;31493;49.058;12.190;2023-05-10T04:13:41;10.60;;;8.48;;
23676;SDS011;31493;49.058;12.190;2023-05-10T04:16:08;10.60;;;8.35;;
23676;SDS011;31493;49.058;12.190;2023-05-10T04:18:37;11.95;;;8.75;;
23676;SDS011;31493;49.058;12.190;2023-05-10T04:21:10;13.02;;;9.05;;
23676;SDS011;31493;49.058;12.190;2023-05-10T04:23:38;11.15;;;8.07;;
23676;SDS011;31493;49.058;12.190;2023-05-10T04:26:05;8.90;;;7.72;;
23676;SDS011;31493;49.058;12.190;2023-05-10T04:28:32;11.32;;;9.00;;
23676;SDS011;31493;49.058;12.190;2023-05-10T04:31:02;15.52;;;9.00;;
23676;SDS011;31493;49.058;12.190;2023-05-10T04:33:29;10.70;;;8.60;;
23676;SDS011;31493;49.058;12.190;2023-05-10T04:35:58;11.55;;;8.65;;
23676;SDS011;31493;49.058;12.190;2023-05-10T04:38:26;10.10;;;8.77;;
23676;SDS011;31493;49.058;12.190;2023-05-10T04:40:53;12.25;;;9.48;;
23676;SDS011;31493;49.058;12.190;2023-05-10T04:43:20;13.25;;;10.10;;
23676;SDS011;31493;49.058;12.190;2023-05-10T04:45:47;11.05;;;8.98;;
23676;SDS011;31493;49.058;12.190;2023-05-10T04:48:15;10.52;;;9.05;;
23676;SDS011;31493;49.058;12.190;2023-05-10T04:50:42;10.32;;;8.90;;
23676;SDS011;31493;49.058;12.190;2023-05-10T04:53:11;12.35;;;9.43;;
23676;SDS011;31493;49.058;12.190;2023-05-10T04:55:38;14.60;;;10.27;;
23676;SDS011;31493;49.058;12.190;2023-05-10T04:58:06;12.93;;;9.90;;
23676;SDS011;31493;49.058;12.190;2023-05-10T05:00:33;13.88;;;10.52;;
23676;SDS011;31493;49.058;12.190;2023-05-10T05:03:00;15.27;;;10.65;;
23676;SDS011;31493;49.058;12.190;2023-05-10T05:05:27;13.95;;;10.75;;
23676;SDS011;31493;49.058;12.190;2023-05-10T05:07:54;13.10;;;9.80;;
23676;SDS011;31493;49.058;12.190;2023-05-10T05:10:23;16.67;;;11.32;;
23676;SDS011;31493;49.058;12.190;2023-05-10T05:12:50;23.63;;;11.18;;
23676;SDS011;31493;49.058;12.190;2023-05-10T05:15:17;15.15;;;11.38;;
23676;SDS011;31493;49.058;12.190;2023-05-10T05:17:44;13.05;;;10.50;;
23676;SDS011;31493;49.058;12.190;2023-05-10T05:20:11;14.73;;;11.52;;
23676;SDS011;31493;49.058;12.190;2023-05-10T05:22:38;17.98;;;11.40;;
23676;SDS011;31493;49.058;12.190;2023-05-10T05:25:06;14.70;;;11.30;;
23676;SDS011;31493;49.058;12.190;2023-05-10T05:27:35;14.95;;;10.57;;
23676;SDS011;31493;49.058;12.190;2023-05-10T05:30:02;14.65;;;11.52;;
23676;SDS011;31493;49.058;12.190;2023-05-10T05:32:29;13.73;;;10.95;;
23676;SDS011;31493;49.058;12.190;2023-05-10T05:34:57;14.88;;;11.45;;
23676;SDS011;31493;49.058;12.190;2023-05-10T05:37:24;17.08;;;10.50;;
23676;SDS011;31493;49.058;12.190;2023-05-10T05:39:51;17.63;;;10.95;;
23676;SDS011;31493;49.058;12.190;2023-05-10T05:42:18;15.07;;;11.70;;
23676;SDS011;31493;49.058;12.190;2023-05-10T05:44:46;13.23;;;10.85;;
23676;SDS011;31493;49.058;12.190;2023-05-10T05:47:13;14.30;;;10.93;;
23676;SDS011;31493;49.058;12.190;2023-05-10T05:49:40;13.63;;;10.90;;
23676;SDS011;31493;49.058;12.190;2023-05-10T05:52:07;13.55;;;11.50;;
23676;SDS011;31493;49.058;12.190;2023-05-10T05:54:34;15.70;;;11.85;;
23676;SDS011;31493;49.058;12.190;2023-05-10T05:57:01;12.48;;;10.85;;
23676;SDS011;31493;49.058;12.190;2023-05-10T05:59:28;13.10;;;11.52;;
23676;SDS011;31493;49.058;12.190;2023-05-10T06:01:56;16.02;;;11.60;;
23676;SDS011;31493;49.058;12.190;2023-05-10T06:04:24;16.77;;;10.85;;
23676;SDS011;31493;49.058;12.190;2023-05-10T06:06:51;16.80;;;11.50;;
23676;SDS011;31493;49.058;12.190;2023-05-10T06:09:18;17.60;;;11.40;;
23676;SDS011;31493;49.058;12.190;2023-05-10T06:11:45;14.73;;;12.02;;
23676;SDS011;31493;49.058;12.190;2023-05-10T06:14:12;15.10;;;11.52;;
23676;SDS011;31493;49.058;12.190;2023-05-10T06:16:39;12.93;;;11.48;;
23676;SDS011;31493;49.058;12.190;2023-05-10T06:19:07;24.52;;;12.40;;
23676;SDS011;31493;49.058;12.190;2023-05-10T06:21:34;13.18;;;11.73;;
23676;SDS011;31493;49.058;12.190;2023-05-10T06:24:01;17.02;;;11.80;;
23676;SDS011;31493;49.058;12.190;2023-05-10T06:26:29;13.68;;;11.20;;
23676;SDS011;31493;49.058;12.190;2023-05-10T06:28:56;14.60;;;12.10;;
23676;SDS011;31493;49.058;12.190;2023-05-10T06:31:23;13.32;;;11.88;;
23676;SDS011;31493;49.058;12.190;2023-05-10T06:33:50;15.88;;;12.43;;
23676;SDS011;31493;49.058;12.190;2023-05-10T06:36:18;16.73;;;12.90;;
23676;SDS011;31493;49.058;12.190;2023-05-10T06:38:45;16.20;;;12.65;;
23676;SDS011;31493;49.058;12.190;2023-05-10T06:41:12;17.02;;;12.52;;
23676;SDS011;31493;49.058;12.190;2023-05-10T06:43:39;17.00;;;12.77;;
23676;SDS011;31493;49.058;12.190;2023-05-10T06:46:07;13.57;;;12.18;;
23676;SDS011;31493;49.058;12.190;2023-05-10T06:48:34;16.15;;;12.48;;
23676;SDS011;31493;49.058;12.190;2023-05-10T06:51:01;14.60;;;10.75;;
23676;SDS011;31493;49.058;12.190;2023-05-10T06:53:29;15.52;;;10.93;;
23676;SDS011;31493;49.058;12.190;2023-05-10T06:55:56;15.75;;;11.05;;
23676;SDS011;31493;49.058;12.190;2023-05-10T06:58:23;14.93;;;10.32;;
23676;SDS011;31493;49.058;12.190;2023-05-10T07:00:50;12.70;;;10.82;;
23676;SDS011;31493;49.058;12.190;2023-05-10T07:03:17;14.15;;;9.70;;
23676;SDS011;31493;49.058;12.190;2023-05-10T07:05:44;12.77;;;10.85;;
23676;SDS011;31493;49.058;12.190;2023-05-10T07:08:11;13.45;;;11.65;;
23676;SDS011;31493;49.058;12.190;2023-05-10T07:10:40;15.38;;;11.02;;
23676;SDS011;31493;49.058;12.190;2023-05-10T07:13:07;13.52;;;10.30;;
23676;SDS011;31493;49.058;12.190;2023-05-10T07:15:35;11.97;;;10.30;;
23676;SDS011;31493;49.058;12.190;2023-05-10T07:18:02;12.75;;;9.88;;
23676;SDS011;31493;49.058;12.190;2023-05-10T07:20:31;14.35;;;10.63;;
23676;SDS011;31493;49.058;12.190;2023-05-10T07:22:58;11.88;;;9.70;;
23676;SDS011;31493;49.058;12.190;2023-05-10T07:25:25;15.43;;;9.98;;
23676;SDS011;31493;49.058;12.190;2023-05-10T07:27:53;11.15;;;9.90;;
23676;SDS011;31493;49.058;12.190;2023-05-10T07:30:20;11.55;;;9.50;;
23676;SDS011;31493;49.058;12.190;2023-05-10T07:32:47;11.90;;;9.70;;
23676;SDS011;31493;49.058;12.190;2023-05-10T07:35:14;10.60;;;9.23;;
23676;SDS011;31493;49.058;12.190;2023-05-10T07:37:41;12.95;;;9.52;;
23676;SDS011;31493;49.058;12.190;2023-05-10T07:40:09;10.80;;;9.32;;
23676;SDS011;31493;49.058;12.190;2023-05-10T07:42:36;12.93;;;10.13;;
23676;SDS011;31493;49.058;12.190;2023-05-10T07:45:05;12.55;;;9.13;;
23676;SDS011;31493;49.058;12.190;2023-05-10T07:47:33;12.52;;;9.55;;
23676;SDS011;31493;49.058;12.190;2023-05-10T07:50:00;12.43;;;9.65;;
23676;SDS011;31493;49.058;12.190;2023-05-10T07:52:27;11.55;;;9.48;;
23676;SDS011;31493;49.058;12.190;2023-05-10T07:54:54;11.27;;;9.32;;
23676;SDS011;31493;49.058;12.190;2023-05-10T07:57:22;11.48;;;9.25;;
23676;SDS011;31493;49.058;12.190;2023-05-10T07:59:49;11.60;;;9.93;;
23676;SDS011;31493;49.058;12.190;2023-05-10T08:02:17;14.18;;;10.15;;
23676;SDS011;31493;49.058;12.190;2023-05-10T08:04:44;11.77;;;9.98;;
23676;SDS011;31493;49.058;12.190;2023-05-10T08:07:12;10.15;;;9.05;;
23676;SDS011;31493;49.058;12.190;2023-05-10T08:09:39;11.98;;;9.82;;
23676;SDS011;31493;49.058;12.190;2023-05-10T08:12:06;12.38;;;9.30;;
23676;SDS011;31493;49.058;12.190;2023-05-10T08:14:33;14.63;;;9.40;;
23676;SDS011;31493;49.058;12.190;2023-05-10T08:17:02;15.77;;;10.02;;
23676;SDS011;31493;49.058;12.190;2023-05-10T08:19:30;10.48;;;8.40;;
23676;SDS011;31493;49.058;12.190;2023-05-10T08:21:57;11.35;;;8.82;;
23676;SDS011;31493;49.058;12.190;2023-05-10T08:24:24;9.73;;;7.97;;
23676;SDS011;31493;49.058;12.190;2023-05-10T08:26:51;11.90;;;8.13;;
23676;SDS011;31493;49.058;12.190;2023-05-10T08:29:18;10.20;;;8.40;;
23676;SDS011;31493;49.058;12.190;2023-05-10T08:31:45;9.02;;;8.13;;
23676;SDS011;31493;49.058;12.190;2023-05-10T08:34:12;9.90;;;8.25;;
23676;SDS011;31493;49.058;12.190;2023-05-10T08:36:41;8.77;;;7.88;;
23676;SDS011;31493;49.058;12.190;2023-05-10T08:39:08;9.07;;;7.35;;
23676;SDS011;31493;49.058;12.190;2023-05-10T08:41:35;7.60;;;6.80;;
23676;SDS011;31493;49.058;12.190;2023-05-10T08:44:04;7.70;;;6.90;;
23676;SDS011;31493;49.058;12.190;2023-05-10T08:46:34;9.07;;;7.13;;
23676;SDS011;31493;49.058;12.190;2023-05-10T08:49:06;7.65;;;6.85;;
23676;SDS011;31493;49.058;12.190;2023-05-10T08:58:58;10.93;;;8.57;;
23676;SDS011;31493;49.058;12.190;2023-05-10T09:01:26;8.70;;;6.55;;
23676;SDS011;31493;49.058;12.190;2023-05-10T09:03:54;6.82;;;6.13;;
23676;SDS011;31493;49.058;12.190;2023-05-10T09:06:21;8.27;;;7.35;;
23676;SDS011;31493;49.058;12.190;2023-05-10T09:08:49;7.60;;;6.63;;
23676;SDS011;31493;49.058;12.190;2023-05-10T09:11:17;9.50;;;7.03;;
23676;SDS011;31493;49.058;12.190;2023-05-10T09:13:46;8.27;;;6.88;;
23676;SDS011;31493;49.058;12.190;2023-05-10T09:16:14;8.57;;;6.22;;
23676;SDS011;31493;49.058;12.190;2023-05-10T09:18:41;7.93;;;5.90;;
23676;SDS011;31493;49.058;12.190;2023-05-10T09:21:08;6.80;;;6.10;;
23676;SDS011;31493;49.058;12.190;2023-05-10T09:23:36;7.72;;;6.50;;
23676;SDS011;31493;49.058;12.190;2023-05-10T09:26:03;6.22;;;5.10;;
23676;SDS011;31493;49.058;12.190;2023-05-10T09:28:32;7.13;;;5.70;;
23676;SDS011;31493;49.058;12.190;2023-05-10T09:33:26;7.80;;;4.32;;
23676;SDS011;31493;49.058;12.190;2023-05-10T09:35:53;5.07;;;4.30;;
23676;SDS011;31493;49.058;12.190;2023-05-10T09:38:20;8.15;;;4.80;;
23676;SDS011;31493;49.058;12.190;2023-05-10T09:40:51;7.70;;;4.82;;
23676;SDS011;31493;49.058;12.190;2023-05-10T09:43:20;6.55;;;4.80;;
23676;SDS011;31493;49.058;12.190;2023-05-10T09:45:49;8.95;;;6.82;;
23676;SDS011;31493;49.058;12.190;2023-05-10T09:48:16;6.68;;;6.07;;
23676;SDS011;31493;49.058;12.190;2023-05-10T09:50:43;7.75;;;6.72;;
23676;SDS011;31493;49.058;12.190;2023-05-10T09:53:10;8.20;;;6.03;;
23676;SDS011;31493;49.058;12.190;2023-05-10T09:55:41;12.63;;;7.28;;
23676;SDS011;31493;49.058;12.190;2023-05-10T09:58:10;9.75;;;7.97;;
23676;SDS011;31493;49.058;12.190;2023-05-10T10:00:38;12.07;;;8.02;;
23676;SDS011;31493;49.058;12.190;2023-05-10T10:03:11;11.40;;;8.52;;
23676;SDS011;31493;49.058;12.190;2023-05-10T10:05:40;11.73;;;8.95;;
23676;SDS011;31493;49.058;12.190;2023-05-10T10:08:08;13.40;;;8.55;;
23676;SDS011;31493;49.058;12.190;2023-05-10T10:10:35;10.52;;;9.40;;
23676;SDS011;31493;49.058;12.190;2023-05-10T10:13:02;12.07;;;7.20;;
23676;SDS011;31493;49.058;12.190;2023-05-10T10:15:30;5.90;;;4.50;;
23676;SDS011;31493;49.058;12.190;2023-05-10T10:17:59;8.60;;;5.65;;
23676;SDS011;31493;49.058;12.190;2023-05-10T10:20:28;5.78;;;2.67;;
23676;SDS011;31493;49.058;12.190;2023-05-10T10:22:55;2.63;;;1.70;;
23676;SDS011;31493;49.058;12.190;2023-05-10T10:25:22;4.15;;;1.80;;
23676;SDS011;31493;49.058;12.190;2023-05-10T10:27:58;2.17;;;1.70;;
23676;SDS011;31493;49.058;12.190;2023-05-10T10:30:37;2.95;;;2.15;;
23676;SDS011;31493;49.058;12.190;2023-05-10T10:33:36;2.90;;;2.00;;
23676;SDS011;31493;49.058;12.190;2023-05-10T10:36:15;3.05;;;2.20;;
23676;SDS011;31493;49.058;12.190;2023-05-10T10:38:55;3.45;;;1.95;;
23676;SDS011;31493;49.058;12.190;2023-05-10T10:41:28;4.38;;;2.20;;
23676;SDS011;31493;49.058;12.190;2023-05-10T10:47:02;2.03;;;1.83;;
23676;SDS011;31493;49.058;12.190;2023-05-10T10:49:37;3.75;;;2.00;;
23676;SDS011;31493;49.058;12.190;2023-05-10T10:52:20;2.70;;;2.17;;
23676;SDS011;31493;49.058;12.190;2023-05-10T10:54:51;2.45;;;1.73;;
23676;SDS011;31493;49.058;12.190;2023-05-10T10:57:19;1.85;;;1.42;;
23676;SDS011;31493;49.058;12.190;2023-05-10T10:59:48;2.25;;;1.73;;
23676;SDS011;31493;49.058;12.190;2023-05-10T11:02:33;5.53;;;2.15;;
23676;SDS011;31493;49.058;12.190;2023-05-10T11:08:10;4.55;;;1.20;;
23676;SDS011;31493;49.058;12.190;2023-05-10T11:10:39;2.03;;;1.30;;
23676;SDS011;31493;49.058;12.190;2023-05-10T11:13:07;5.17;;;1.40;;
23676;SDS011;31493;49.058;12.190;2023-05-10T11:15:36;3.40;;;1.40;;
23676;SDS011;31493;49.058;12.190;2023-05-10T11:18:16;1.00;;;0.90;;
23676;SDS011;31493;49.058;12.190;2023-05-10T11:20:46;2.28;;;0.93;;
23676;SDS011;31493;49.058;12.190;2023-05-10T11:23:18;1.90;;;1.00;;
23676;SDS011;31493;49.058;12.190;2023-05-10T11:25:47;3.67;;;0.90;;
23676;SDS011;31493;49.058;12.190;2023-05-10T11:28:16;1.75;;;1.10;;
23676;SDS011;31493;49.058;12.190;2023-05-10T11:30:44;2.28;;;0.93;;
23676;SDS011;31493;49.058;12.190;2023-05-10T11:33:14;4.78;;;0.93;;
23676;SDS011;31493;49.058;12.190;2023-05-10T11:35:42;1.48;;;1.25;;
23676;SDS011;31493;49.058;12.190;2023-05-10T11:38:10;2.83;;;1.17;;
23676;SDS011;31493;49.058;12.190;2023-05-10T11:40:41;3.17;;;0.97;;
23676;SDS011;31493;49.058;12.190;2023-05-10T11:43:09;1.63;;;0.63;;
23676;SDS011;31493;49.058;12.190;2023-05-10T11:45:37;2.20;;;0.90;;
23676;SDS011;31493;49.058;12.190;2023-05-10T11:48:04;1.13;;;0.80;;
23676;SDS011;31493;49.058;12.190;2023-05-10T11:50:31;5.72;;;0.80;;
23676;SDS011;31493;49.058;12.190;2023-05-10T11:52:59;1.48;;;0.90;;
23676;SDS011;31493;49.058;12.190;2023-05-10T11:55:26;6.60;;;0.95;;
23676;SDS011;31493;49.058;12.190;2023-05-10T11:58:01;1.38;;;0.90;;
23676;SDS011;31493;49.058;12.190;2023-05-10T12:00:29;1.60;;;0.98;;
23676;SDS011;31493;49.058;12.190;2023-05-10T12:03:00;2.45;;;0.82;;
23676;SDS011;31493;49.058;12.190;2023-05-10T12:05:27;1.55;;;1.17;;
23676;SDS011;31493;49.058;12.190;2023-05-10T12:10:37;5.35;;;2.60;;
23676;SDS011;31493;49.058;12.190;2023-05-10T12:13:06;3.97;;;3.20;;
23676;SDS011;31493;49.058;12.190;2023-05-10T12:15:38;4.35;;;2.90;;
23676;SDS011;31493;49.058;12.190;2023-05-10T12:18:05;4.47;;;3.28;;
23676;SDS011;31493;49.058;12.190;2023-05-10T12:20:33;2.93;;;2.63;;
23676;SDS011;31493;49.058;12.190;2023-05-10T12:23:00;4.30;;;3.78;;
23676;SDS011;31493;49.058;12.190;2023-05-10T12:25:29;5.35;;;3.30;;
23676;SDS011;31493;49.058;12.190;2023-05-10T12:27:58;4.35;;;2.88;;
23676;SDS011;31493;49.058;12.190;2023-05-10T12:30:28;4.57;;;3.53;;
23676;SDS011;31493;49.058;12.190;2023-05-10T12:32:59;7.78;;;3.80;;
23676;SDS011;31493;49.058;12.190;2023-05-10T12:35:29;6.47;;;3.60;;
23676;SDS011;31493;49.058;12.190;2023-05-10T12:37:57;4.00;;;3.60;;
23676;SDS011;31493;49.058;12.190;2023-05-10T12:40:24;3.90;;;3.58;;
23676;SDS011;31493;49.058;12.190;2023-05-10T12:42:51;11.10;;;5.28;;
23676;SDS011;31493;49.058;12.190;2023-05-10T12:45:18;10.60;;;4.45;;
23676;SDS011;31493;49.058;12.190;2023-05-10T12:47:47;6.93;;;2.90;;
23676;SDS011;31493;49.058;12.190;2023-05-10T12:50:14;2.80;;;1.70;;
23676;SDS011;31493;49.058;12.190;2023-05-10T12:52:41;2.80;;;1.98;;
23676;SDS011;31493;49.058;12.190;2023-05-10T12:55:08;2.75;;;1.60;;
23676;SDS011;31493;49.058;12.190;2023-05-10T12:57:35;4.43;;;1.38;;
23676;SDS011;31493;49.058;12.190;2023-05-10T13:00:02;5.68;;;1.60;;
23676;SDS011;31493;49.058;12.190;2023-05-10T13:02:30;2.78;;;1.48;;
23676;SDS011;31493;49.058;12.190;2023-05-10T13:04:59;4.88;;;1.83;;
23676;SDS011;31493;49.058;12.190;2023-05-10T13:07:27;6.50;;;1.50;;
23676;SDS011;31493;49.058;12.190;2023-05-10T13:09:54;4.65;;;1.20;;
23676;SDS011;31493;49.058;12.190;2023-05-10T13:12:21;1.83;;;1.20;;
23676;SDS011;31493;49.058;12.190;2023-05-10T13:14:50;3.22;;;1.17;;
23676;SDS011;31493;49.058;12.190;2023-05-10T13:17:17;4.68;;;1.20;;
23676;SDS011;31493;49.058;12.190;2023-05-10T13:19:47;2.72;;;1.20;;
23676;SDS011;31493;49.058;12.190;2023-05-10T13:22:15;4.18;;;1.38;;
23676;SDS011;31493;49.058;12.190;2023-05-10T13:24:42;1.73;;;1.33;;
23676;SDS011;31493;49.058;12.190;2023-05-10T13:27:10;7.03;;;1.55;;
23676;SDS011;31493;49.058;12.190;2023-05-10T13:29:37;2.78;;;1.45;;
23676;SDS011;31493;49.058;12.190;2023-05-10T13:32:04;2.58;;;1.08;;
23676;SDS011;31493;49.058;12.190;2023-05-10T13:34:31;3.08;;;1.25;;
23676;SDS011;31493;49.058;12.190;2023-05-10T13:36:58;2.97;;;1.27;;
23676;SDS011;31493;49.058;12.190;2023-05-10T13:39:27;3.03;;;1.48;;
23676;SDS011;31493;49.058;12.190;2023-05-10T13:41:56;1.88;;;1.50;;
23676;SDS011;31493;49.058;12.190;2023-05-10T13:44:23;3.58;;;1.58;;
23676;SDS011;31493;49.058;12.190;2023-05-10T13:46:50;2.83;;;1.50;;
23676;SDS011;31493;49.058;12.190;2023-05-10T13:49:17;3.80;;;1.90;;
23676;SDS011;31493;49.058;12.190;2023-05-10T13:51:44;3.65;;;1.70;;
23676;SDS011;31493;49.058;12.190;2023-05-10T13:54:11;1.60;;;1.40;;
23676;SDS011;31493;49.058;12.190;2023-05-10T13:56:42;2.65;;;1.50;;
23676;SDS011;31493;49.058;12.190;2023-05-10T13:59:09;2.08;;;1.40;;
23676;SDS011;31493;49.058;12.190;2023-05-10T14:01:36;3.10;;;1.50;;
23676;SDS011;31493;49.058;12.190;2023-05-10T14:04:03;1.92;;;1.20;;
23676;SDS011;31493;49.058;12.190;2023-05-10T14:06:30;1.95;;;1.15;;
23676;SDS011;31493;49.058;12.190;2023-05-10T14:08:57;3.33;;;1.15;;
23676;SDS011;31493;49.058;12.190;2023-05-10T14:11:24;3.60;;;1.48;;
23676;SDS011;31493;49.058;12.190;2023-05-10T14:13:53;2.90;;;1.70;;
23676;SDS011;31493;49.058;12.190;2023-05-10T14:16:20;4.20;;;1.83;;
23676;SDS011;31493;49.058;12.190;2023-05-10T14:18:47;2.58;;;1.50;;
23676;SDS011;31493;49.058;12.190;2023-05-10T14:21:14;5.10;;;1.50;;
23676;SDS011;31493;49.058;12.190;2023-05-10T14:23:41;5.55;;;2.20;;
23676;SDS011;31493;49.058;12.190;2023-05-10T14:26:08;3.95;;;1.38;;
23676;SDS011;31493;49.058;12.190;2023-05-10T14:28:36;2.28;;;1.63;;
23676;SDS011;31493;49.058;12.190;2023-05-10T14:31:04;2.15;;;1.60;;
23676;SDS011;31493;49.058;12.190;2023-05-10T14:33:31;3.45;;;2.10;;
23676;SDS011;31493;49.058;12.190;2023-05-10T14:35:58;2.15;;;1.40;;
23676;SDS011;31493;49.058;12.190;2023-05-10T14:38:25;2.35;;;1.40;;
23676;SDS011;31493;49.058;12.190;2023-05-10T14:40:52;2.47;;;1.63;;
23676;SDS011;31493;49.058;12.190;2023-05-10T14:43:20;1.17;;;1.08;;
23676;SDS011;31493;49.058;12.190;2023-05-10T14:45:47;4.05;;;1.55;;
23676;SDS011;31493;49.058;12.190;2023-05-10T14:48:15;3.83;;;1.33;;
23676;SDS011;31493;49.058;12.190;2023-05-10T14:53:09;6.55;;;1.40;;
23676;SDS011;31493;49.058;12.190;2023-05-10T14:55:36;2.85;;;1.25;;
23676;SDS011;31493;49.058;12.190;2023-05-10T14:58:04;3.38;;;1.20;;
23676;SDS011;31493;49.058;12.190;2023-05-10T15:00:31;3.17;;;2.20;;
23676;SDS011;31493;49.058;12.190;2023-05-10T15:02:58;3.92;;;1.83;;
23676;SDS011;31493;49.058;12.190;2023-05-10T15:05:27;4.50;;;1.45;;